Time;durP1;ratioP1;P1;durP2;ratioP2;P2;SDS_P1;SDS_P2;PMS_P1;PMS_P2;Temp;Humidity;BMP_temperature;BMP_pressure;BME280_temperature;BME280_humidity;BME280_pressure;Samples;Min_cycle;Max_cycle;Signal;HPM_P1;HPM_P2
2022/01/23 00:02:26;;;;;;;1.25;0.10;;;28.20;99.90;;;;;;5064115;28;20067;-77
2022/01/23 00:04:54;;;;;;;1.60;0.10;;;28.50;99.30;;;;;;5058295;28;20033;-79
2022/01/23 00:07:23;;;;;;;0.10;0.10;;;28.80;98.40;;;;;;5056866;28;20455;-76
2022/01/23 00:09:50;;;;;;;2.97;0.50;;;28.80;98.30;;;;;;5062995;28;20359;-80
2022/01/23 00:12:22;;;;;;;1.27;0.00;;;28.80;99.30;;;;;;5064556;28;20103;-77
2022/01/23 00:17:35;;;;;;;2.67;0.35;;;29.20;97.80;;;;;;5064650;28;20525;-79
2022/01/23 00:20:07;;;;;;;1.13;0.10;;;29.50;96.20;;;;;;5061883;28;20021;-74
2022/01/23 00:22:41;;;;;;;1.55;0.10;;;29.80;95.90;;;;;;5058260;28;22411;-75
2022/01/23 00:30:42;;;;;;;1.75;0.10;;;30.00;94.70;;;;;;5060285;28;20055;-76
2022/01/23 00:33:11;;;;;;;0.40;0.00;;;29.80;94.90;;;;;;5054525;28;20325;-74
2022/01/23 00:35:41;;;;;;;0.65;0.45;;;29.20;94.80;;;;;;5054135;28;20110;-74
2022/01/23 00:38:11;;;;;;;0.82;0.22;;;28.80;95.80;;;;;;5055448;28;20029;-76
2022/01/23 00:40:40;;;;;;;0.05;0.00;;;28.60;96.40;;;;;;5069925;28;20533;-75
2022/01/23 00:43:17;;;;;;;0.45;0.10;;;28.90;95.90;;;;;;5054058;28;20132;-75
2022/01/23 00:45:49;;;;;;;1.52;0.10;;;29.20;95.00;;;;;;5069249;28;20028;-74
2022/01/23 00:48:21;;;;;;;0.73;0.13;;;29.70;95.00;;;;;;5060789;28;20349;-74
2022/01/23 00:50:48;;;;;;;1.40;0.10;;;30.10;95.70;;;;;;5067262;28;20043;-78
2022/01/23 00:53:15;;;;;;;1.00;0.10;;;30.30;94.10;;;;;;5052400;28;20037;-75
2022/01/23 00:55:46;;;;;;;0.85;0.10;;;30.00;94.60;;;;;;5055214;28;20493;-73
2022/01/23 00:58:14;;;;;;;0.22;0.08;;;30.30;95.10;;;;;;5065027;28;20052;-76
2022/01/23 01:00:43;;;;;;;0.63;0.10;;;29.70;94.60;;;;;;5060615;28;20064;-77
2022/01/23 01:03:10;;;;;;;0.73;0.20;;;29.20;94.70;;;;;;5066619;28;20151;-79
2022/01/23 01:05:38;;;;;;;0.15;0.00;;;28.70;94.90;;;;;;5059596;28;20116;-81
2022/01/23 01:08:06;;;;;;;0.00;0.00;;;28.30;95.50;;;;;;5064552;28;20052;-75
2022/01/23 01:10:46;;;;;;;0.43;0.20;;;27.90;95.60;;;;;;5056295;28;20099;-75
2022/01/23 01:13:14;;;;;;;1.92;0.13;;;27.60;96.10;;;;;;5052748;28;20025;-80
2022/01/23 01:32:12;;;;;;;0.73;0.10;;;26.50;98.40;;;;;;5061710;28;20048;-82
2022/01/23 01:34:50;;;;;;;1.35;0.17;;;26.70;97.70;;;;;;5057032;28;20149;-76
2022/01/23 01:37:18;;;;;;;0.20;0.10;;;26.90;97.30;;;;;;5060770;28;20040;-76
2022/01/23 01:39:45;;;;;;;0.28;0.10;;;26.90;96.50;;;;;;5057064;28;20021;-81
2022/01/23 01:42:12;;;;;;;0.20;0.00;;;27.00;96.50;;;;;;5067400;28;20052;-80
2022/01/23 01:44:40;;;;;;;0.30;0.10;;;27.20;96.30;;;;;;5062972;28;20514;-77
2022/01/23 01:47:08;;;;;;;1.73;0.30;;;27.30;96.00;;;;;;5061930;28;20114;-76
2022/01/23 01:49:35;;;;;;;0.50;0.20;;;27.40;96.20;;;;;;5054596;28;20033;-79
2022/01/23 01:52:04;;;;;;;0.45;0.20;;;27.50;95.90;;;;;;5060696;28;20020;-77
2022/01/23 01:54:33;;;;;;;0.30;0.00;;;27.60;95.90;;;;;;5060388;28;20021;-75
2022/01/23 01:57:07;;;;;;;1.23;0.10;;;27.70;95.60;;;;;;5055647;28;20116;-75
2022/01/23 02:10:34;;;;;;;0.80;0.10;;;27.00;97.60;;;;;;5058016;28;20031;-76
2022/01/23 02:13:08;;;;;;;3.70;0.20;;;26.80;98.30;;;;;;5058475;28;20043;-79
2022/01/23 02:22:26;;;;;;;1.50;0.55;;;26.50;98.60;;;;;;5074225;28;20420;-75
2022/01/23 02:56:57;;;;;;;1.50;0.10;;;28.30;95.70;;;;;;5072236;28;20028;-78
2022/01/23 02:59:30;;;;;;;3.22;0.13;;;28.40;95.80;;;;;;5073496;28;20071;-73
2022/01/23 03:04:29;;;;;;;0.30;0.10;;;28.00;95.90;;;;;;5069343;28;20123;-77
2022/01/23 03:07:15;;;;;;;0.40;0.00;;;27.80;95.90;;;;;;5057962;28;20024;-76
2022/01/23 03:09:58;;;;;;;0.00;0.00;;;27.70;96.50;;;;;;5052737;28;20466;-75
2022/01/23 03:15:28;;;;;;;0.52;0.10;;;27.30;96.70;;;;;;5057928;28;20036;-75
2022/01/23 03:33:44;;;;;;;0.57;0.13;;;27.90;95.70;;;;;;5058659;28;20479;-75
2022/01/23 03:36:11;;;;;;;0.30;0.08;;;28.10;95.40;;;;;;5067658;28;20116;-77
2022/01/23 03:38:39;;;;;;;1.70;0.10;;;28.60;95.20;;;;;;5063235;28;20522;-75
2022/01/23 03:41:06;;;;;;;1.55;0.30;;;29.10;94.70;;;;;;5056375;28;20077;-76
2022/01/23 03:43:37;;;;;;;1.80;0.45;;;29.40;94.70;;;;;;5052144;28;20090;-80
2022/01/23 03:51:22;;;;;;;1.85;0.30;;;28.20;95.30;;;;;;5054165;28;20028;-75
2022/01/23 03:53:50;;;;;;;5.50;2.47;;;27.80;96.20;;;;;;5070542;28;20103;-74
2022/01/23 03:56:19;;;;;;;1.48;0.30;;;27.50;96.40;;;;;;5057883;28;20143;-77
2022/01/23 03:58:46;;;;;;;3.30;0.73;;;27.30;98.00;;;;;;5072246;28;20073;-75
2022/01/23 04:01:13;;;;;;;0.40;0.10;;;27.10;98.70;;;;;;5069371;28;20024;-74
2022/01/23 04:03:41;;;;;;;0.80;0.30;;;27.00;98.00;;;;;;5070240;28;20041;-74
2022/01/23 04:06:09;;;;;;;0.60;0.20;;;27.00;97.80;;;;;;5052902;28;20028;-75
2022/01/23 04:08:37;;;;;;;0.40;0.10;;;27.00;97.60;;;;;;5051703;28;20037;-76
2022/01/23 04:11:05;;;;;;;1.20;0.10;;;27.00;97.20;;;;;;5050968;28;20096;-73
2022/01/23 04:13:50;;;;;;;0.20;0.20;;;27.00;97.00;;;;;;5070737;28;20025;-75
2022/01/23 04:16:42;;;;;;;2.67;0.20;;;27.10;97.30;;;;;;5067287;28;20574;-76
2022/01/23 04:19:29;;;;;;;0.57;0.10;;;27.10;97.30;;;;;;5070460;28;20376;-76
2022/01/23 05:00:21;;;;;;;0.20;0.10;;;28.90;93.50;;;;;;5050871;28;20118;-77
2022/01/23 05:05:59;;;;;;;0.25;0.13;;;28.50;93.40;;;;;;5013560;28;20157;-76
2022/01/23 05:08:29;;;;;;;0.80;0.20;;;28.40;93.80;;;;;;5064888;28;20060;-75
2022/01/23 05:10:59;;;;;;;0.45;0.30;;;28.20;94.30;;;;;;5071109;28;20069;-75
2022/01/23 05:13:28;;;;;;;0.32;0.00;;;28.00;94.80;;;;;;5067604;28;20040;-75
2022/01/23 05:15:56;;;;;;;0.00;0.00;;;28.40;94.50;;;;;;5050876;28;20036;-75
2022/01/23 05:18:24;;;;;;;1.75;0.10;;;28.90;93.70;;;;;;5069537;28;20431;-77
2022/01/23 05:21:02;;;;;;;0.55;0.10;;;29.20;94.20;;;;;;5059839;28;20120;-74
2022/01/23 05:23:29;;;;;;;0.28;0.10;;;29.30;93.80;;;;;;5068833;28;20041;-76
2022/01/23 05:25:57;;;;;;;0.20;0.10;;;29.40;93.60;;;;;;5070045;28;20460;-79
2022/01/23 05:28:24;;;;;;;0.90;0.15;;;29.50;93.10;;;;;;5054206;28;20036;-76
2022/01/23 05:30:51;;;;;;;0.32;0.10;;;29.60;93.60;;;;;;5059744;28;20070;-73
2022/01/23 05:33:19;;;;;;;0.22;0.10;;;29.80;93.50;;;;;;5058479;28;20033;-79
2022/01/23 05:35:46;;;;;;;0.40;0.10;;;29.90;93.40;;;;;;5063474;28;20331;-76
2022/01/23 05:38:13;;;;;;;1.17;0.10;;;29.80;93.00;;;;;;5053122;28;20056;-74
2022/01/23 05:40:43;;;;;;;0.30;0.13;;;29.40;93.00;;;;;;5050281;28;20055;-75
2022/01/23 05:43:10;;;;;;;0.17;0.10;;;28.70;93.30;;;;;;5066337;28;20085;-75
2022/01/23 05:45:41;;;;;;;0.47;0.20;;;28.60;94.00;;;;;;5070159;28;20025;-77
2022/01/23 05:48:09;;;;;;;1.98;0.38;;;28.70;93.80;;;;;;5057006;28;20116;-75
2022/01/23 05:50:36;;;;;;;0.10;0.00;;;28.80;93.50;;;;;;5050381;28;20032;-77
2022/01/23 05:53:04;;;;;;;0.45;0.00;;;28.80;93.60;;;;;;5068908;28;20035;-76
2022/01/23 05:55:31;;;;;;;1.60;0.10;;;28.60;93.80;;;;;;5068838;28;20025;-80
2022/01/23 05:57:59;;;;;;;0.95;0.20;;;28.40;94.10;;;;;;5067157;28;20051;-77
2022/01/23 06:00:26;;;;;;;0.20;0.00;;;28.60;94.40;;;;;;5071068;28;20363;-76
2022/01/23 06:02:54;;;;;;;0.65;0.65;;;28.80;94.10;;;;;;5057211;28;20225;-75
2022/01/23 06:05:21;;;;;;;0.63;0.30;;;28.80;93.90;;;;;;5066512;28;20041;-77
2022/01/23 06:07:50;;;;;;;1.38;0.10;;;28.80;94.10;;;;;;5067103;28;20056;-74
2022/01/23 06:10:27;;;;;;;0.20;0.05;;;28.60;93.80;;;;;;5074003;28;20387;-79
2022/01/23 06:12:55;;;;;;;0.38;0.10;;;28.70;93.70;;;;;;5071653;28;20464;-75
2022/01/23 06:15:22;;;;;;;0.47;0.05;;;28.80;93.20;;;;;;5069156;28;20417;-77
2022/01/23 06:17:49;;;;;;;1.00;0.17;;;28.60;93.00;;;;;;5067174;28;20063;-77
2022/01/23 06:20:17;;;;;;;0.57;0.10;;;28.30;93.30;;;;;;5072851;28;20488;-76
2022/01/23 06:22:46;;;;;;;0.40;0.10;;;28.10;93.60;;;;;;5069945;28;20356;-79
2022/01/23 06:25:15;;;;;;;0.80;0.08;;;27.90;94.00;;;;;;5058872;28;20067;-77
2022/01/23 06:27:43;;;;;;;0.30;0.10;;;27.70;93.70;;;;;;5061765;28;20082;-75
2022/01/23 06:30:11;;;;;;;0.10;0.00;;;27.40;93.90;;;;;;5073100;28;20036;-77
2022/01/23 06:32:39;;;;;;;0.22;0.00;;;27.30;94.50;;;;;;5070479;28;20025;-76
2022/01/23 06:35:07;;;;;;;0.50;0.10;;;27.00;94.30;;;;;;5073339;28;20028;-80
2022/01/23 06:37:34;;;;;;;0.20;0.10;;;26.90;94.50;;;;;;5071473;28;20059;-79
2022/01/23 06:40:02;;;;;;;0.63;0.13;;;26.90;94.70;;;;;;5073288;28;20082;-75
2022/01/23 06:42:29;;;;;;;0.60;0.13;;;26.90;95.00;;;;;;5061005;28;20475;-76
2022/01/23 06:44:58;;;;;;;1.00;0.10;;;27.10;94.50;;;;;;5068182;28;20045;-74
2022/01/23 06:47:25;;;;;;;1.27;0.28;;;27.40;94.40;;;;;;5064242;28;20079;-74
2022/01/23 06:49:53;;;;;;;0.40;0.10;;;27.50;94.40;;;;;;5071902;28;20463;-75
2022/01/23 06:52:20;;;;;;;0.20;0.10;;;27.40;94.20;;;;;;5071049;28;20028;-76
2022/01/23 06:54:48;;;;;;;1.08;0.15;;;27.30;94.50;;;;;;5073086;28;20020;-77
2022/01/23 06:57:15;;;;;;;0.55;0.10;;;27.40;94.20;;;;;;5065559;28;20052;-76
2022/01/23 06:59:42;;;;;;;1.23;0.20;;;27.60;94.20;;;;;;5070061;28;20039;-75
2022/01/23 07:02:10;;;;;;;0.82;0.20;;;27.60;94.30;;;;;;5061252;28;20017;-81
2022/01/23 07:04:37;;;;;;;0.30;0.10;;;27.70;94.60;;;;;;5052078;28;20052;-75
2022/01/23 07:07:05;;;;;;;0.50;0.10;;;27.60;94.60;;;;;;5063028;28;20387;-79
2022/01/23 07:09:33;;;;;;;0.13;0.10;;;27.40;94.90;;;;;;5072669;28;20136;-76
2022/01/23 07:12:00;;;;;;;1.45;0.08;;;27.10;95.20;;;;;;5064419;28;20117;-78
2022/01/23 07:14:27;;;;;;;1.17;0.10;;;26.80;95.50;;;;;;5052391;28;20055;-76
2022/01/23 07:16:55;;;;;;;0.52;0.10;;;26.60;96.10;;;;;;5058596;28;20447;-77
2022/01/23 07:19:22;;;;;;;0.00;0.00;;;26.40;96.10;;;;;;5068280;28;20107;-76
2022/01/23 07:21:49;;;;;;;0.15;0.10;;;26.20;96.50;;;;;;5062277;28;20048;-79
2022/01/23 07:24:17;;;;;;;1.08;0.10;;;26.10;96.60;;;;;;5068680;28;20165;-76
2022/01/23 07:26:44;;;;;;;1.02;0.28;;;25.90;96.40;;;;;;5070708;28;20036;-74
2022/01/23 07:29:11;;;;;;;2.22;0.10;;;25.80;96.80;;;;;;5073591;28;20024;-75
2022/01/23 07:34:09;;;;;;;1.55;0.20;;;25.50;97.60;;;;;;5051904;28;20049;-76
2022/01/23 07:36:37;;;;;;;2.67;0.55;;;25.40;97.70;;;;;;5056131;28;20021;-75
2022/01/23 07:39:06;;;;;;;2.33;0.10;;;25.30;97.80;;;;;;5072239;28;20109;-78
2022/01/23 07:41:33;;;;;;;2.15;0.10;;;25.30;98.10;;;;;;5061250;28;20514;-77
2022/01/23 07:44:01;;;;;;;0.30;0.10;;;25.10;97.90;;;;;;5068658;28;20047;-79
2022/01/23 07:46:28;;;;;;;1.83;0.32;;;25.10;97.80;;;;;;5070309;28;20067;-73
2022/01/23 07:48:56;;;;;;;1.65;0.10;;;25.00;98.00;;;;;;5072058;28;20020;-75
2022/01/23 07:51:23;;;;;;;1.05;0.65;;;25.00;97.90;;;;;;5062073;28;20112;-76
2022/01/23 07:53:51;;;;;;;0.60;0.10;;;24.90;97.30;;;;;;5069201;28;20458;-75
2022/01/23 07:56:19;;;;;;;1.40;0.20;;;24.90;97.20;;;;;;5065207;28;20120;-77
2022/01/23 07:58:46;;;;;;;0.43;0.10;;;25.00;97.30;;;;;;5056808;28;20028;-76
2022/01/23 08:01:14;;;;;;;0.85;0.45;;;25.00;97.10;;;;;;5051922;28;20037;-75
2022/01/23 08:03:41;;;;;;;0.50;0.50;;;25.00;97.30;;;;;;5069023;28;20404;-76
2022/01/23 08:06:11;;;;;;;0.88;0.20;;;25.10;97.00;;;;;;5057417;28;20375;-77
2022/01/23 08:08:39;;;;;;;1.40;0.38;;;25.10;97.10;;;;;;5068636;28;20444;-74
2022/01/23 08:11:08;;;;;;;0.93;0.10;;;25.20;97.30;;;;;;5057548;28;20456;-76
2022/01/23 08:13:36;;;;;;;0.10;0.10;;;25.20;97.00;;;;;;5070027;28;20032;-75
2022/01/23 08:16:03;;;;;;;0.93;0.10;;;25.20;97.00;;;;;;5069847;28;20307;-74
2022/01/23 08:18:31;;;;;;;0.30;0.10;;;25.00;97.10;;;;;;5053354;28;20064;-76
2022/01/23 08:20:58;;;;;;;1.10;0.15;;;24.90;97.40;;;;;;5069349;28;20024;-74
2022/01/23 08:23:25;;;;;;;0.20;0.10;;;24.70;97.70;;;;;;5066837;28;20479;-75
2022/01/23 08:25:53;;;;;;;0.65;0.13;;;24.60;97.80;;;;;;5067419;28;20387;-75
2022/01/23 08:28:20;;;;;;;0.20;0.10;;;24.50;98.00;;;;;;5058330;28;20094;-78
2022/01/23 08:30:47;;;;;;;0.77;0.10;;;24.40;98.00;;;;;;5051626;28;20159;-75
2022/01/23 08:33:15;;;;;;;1.45;0.10;;;24.40;98.30;;;;;;5068545;28;20040;-77
2022/01/23 08:35:45;;;;;;;1.17;0.60;;;24.30;98.50;;;;;;5071279;28;20052;-76
2022/01/23 08:38:16;;;;;;;0.98;0.17;;;24.20;98.30;;;;;;5064468;28;20541;-75
2022/01/23 08:43:16;;;;;;;0.45;0.10;;;24.10;98.30;;;;;;5068810;28;20098;-76
2022/01/23 08:45:44;;;;;;;0.63;0.10;;;24.00;98.50;;;;;;5069435;28;20033;-78
2022/01/23 08:48:14;;;;;;;2.53;0.10;;;23.90;98.40;;;;;;5065560;28;20578;-75
2022/01/23 08:50:41;;;;;;;0.10;0.03;;;23.90;98.70;;;;;;5051165;28;20423;-75
2022/01/23 08:53:09;;;;;;;0.65;0.20;;;23.80;98.70;;;;;;5067745;28;20059;-73
2022/01/23 08:55:36;;;;;;;3.45;0.20;;;23.70;99.00;;;;;;5071092;28;20021;-75
2022/01/23 08:58:03;;;;;;;0.43;0.43;;;23.70;99.10;;;;;;5063082;28;20066;-77
2022/01/23 09:00:31;;;;;;;0.55;0.15;;;23.70;99.30;;;;;;5059912;28;20041;-74
2022/01/23 09:02:59;;;;;;;0.52;0.15;;;23.60;99.20;;;;;;5053481;28;20052;-77
2022/01/23 09:05:28;;;;;;;0.30;0.10;;;23.70;99.30;;;;;;5050923;28;20113;-75
2022/01/23 09:07:55;;;;;;;0.68;0.10;;;23.60;99.40;;;;;;5066062;28;20491;-74
2022/01/23 09:10:28;;;;;;;1.55;0.10;;;23.50;99.60;;;;;;5068482;28;20058;-75
2022/01/23 09:13:12;;;;;;;0.70;0.10;;;23.40;99.90;;;;;;5057442;28;20048;-76
2022/01/23 09:15:39;;;;;;;0.32;0.20;;;23.40;99.90;;;;;;5064938;28;20032;-75
2022/01/23 09:18:06;;;;;;;0.30;0.10;;;23.40;99.90;;;;;;5068840;28;20033;-75
2022/01/23 09:20:34;;;;;;;1.27;0.50;;;23.40;99.90;;;;;;5069781;28;20920;-77
2022/01/23 09:23:01;;;;;;;0.73;0.22;;;23.40;99.90;;;;;;5065079;28;20541;-78
2022/01/23 09:25:29;;;;;;;0.95;0.30;;;23.40;99.90;;;;;;5059228;28;20041;-76
2022/01/23 09:28:03;;;;;;;1.85;0.73;;;23.30;99.90;;;;;;5079649;28;20029;-75
2022/01/23 09:30:35;;;;;;;1.98;0.20;;;23.30;99.90;;;;;;5055874;28;20036;-75
2022/01/23 09:33:03;;;;;;;2.40;0.30;;;23.30;99.90;;;;;;5070165;28;20052;-74
2022/01/23 09:35:31;;;;;;;0.55;0.45;;;23.20;99.90;;;;;;5064768;28;20074;-75
2022/01/23 09:37:58;;;;;;;0.85;0.25;;;23.20;99.90;;;;;;5055412;28;20033;-74
2022/01/23 09:40:26;;;;;;;2.17;0.25;;;23.20;99.90;;;;;;5055326;28;20569;-74
2022/01/23 09:43:06;;;;;;;1.05;0.20;;;23.10;99.90;;;;;;5070801;28;20498;-74
2022/01/23 09:45:34;;;;;;;0.20;0.10;;;23.10;99.90;;;;;;5062398;28;20043;-75
2022/01/23 09:48:04;;;;;;;3.80;0.70;;;23.00;99.90;;;;;;5064215;28;20033;-75
2022/01/23 09:50:32;;;;;;;0.25;0.10;;;23.00;99.90;;;;;;5073034;28;20031;-78
2022/01/23 09:53:00;;;;;;;0.40;0.20;;;22.90;99.90;;;;;;5071839;28;20060;-75
2022/01/23 09:55:29;;;;;;;0.52;0.10;;;22.90;99.90;;;;;;5064172;28;20036;-78
2022/01/23 09:57:56;;;;;;;0.25;0.20;;;22.80;99.90;;;;;;5057214;28;20021;-79
2022/01/23 10:00:27;;;;;;;0.50;0.20;;;22.80;99.90;;;;;;5060112;28;20039;-76
2022/01/23 10:02:54;;;;;;;3.75;0.20;;;22.80;99.90;;;;;;5069983;28;20025;-75
2022/01/23 10:05:22;;;;;;;0.93;0.20;;;22.80;99.90;;;;;;5072982;28;20036;-75
2022/01/23 10:07:50;;;;;;;2.08;0.30;;;22.70;99.90;;;;;;5069451;28;20493;-76
2022/01/23 10:10:22;;;;;;;1.17;0.20;;;22.70;99.90;;;;;;5072428;28;20024;-77
2022/01/23 10:12:55;;;;;;;2.60;0.30;;;22.60;99.90;;;;;;5071915;28;20025;-76
2022/01/23 10:15:25;;;;;;;3.50;0.65;;;22.50;99.90;;;;;;5074203;28;20489;-77
2022/01/23 10:17:53;;;;;;;3.10;0.22;;;22.50;99.90;;;;;;5056469;28;20120;-80
2022/01/23 10:20:21;;;;;;;0.95;0.30;;;22.50;99.90;;;;;;5069235;28;20033;-76
2022/01/23 10:22:51;;;;;;;0.73;0.30;;;22.50;99.90;;;;;;5071991;28;20052;-78
2022/01/23 10:25:21;;;;;;;1.02;0.43;;;22.50;99.90;;;;;;5071323;28;20457;-77
2022/01/23 10:27:52;;;;;;;6.13;0.40;;;22.50;99.90;;;;;;5067252;28;20024;-78
2022/01/23 10:30:21;;;;;;;9.02;0.70;;;22.50;99.90;;;;;;5063466;28;20036;-75
2022/01/23 10:32:59;;;;;;;0.45;0.20;;;22.50;99.90;;;;;;5065113;28;20548;-75
2022/01/23 10:35:27;;;;;;;1.35;0.35;;;22.50;99.90;;;;;;5068061;28;20039;-77
2022/01/23 10:37:55;;;;;;;1.83;0.35;;;22.50;99.90;;;;;;5070915;28;20032;-74
2022/01/23 10:40:24;;;;;;;1.80;0.30;;;22.60;99.90;;;;;;5072380;28;20044;-76
2022/01/23 10:49:00;;;;;;;0.50;0.20;;;22.50;99.90;;;;;;5054914;28;20063;-76
2022/01/23 10:51:35;;;;;;;3.33;0.40;;;22.40;99.90;;;;;;5016171;28;20530;-75
2022/01/23 10:54:11;;;;;;;0.88;0.17;;;22.40;99.90;;;;;;5050309;28;20033;-75
2022/01/23 10:56:49;;;;;;;1.15;0.30;;;22.40;99.90;;;;;;5056996;28;20064;-77
2022/01/23 10:59:17;;;;;;;2.53;0.20;;;22.40;99.90;;;;;;5073021;28;20483;-78
2022/01/23 11:02:14;;;;;;;1.58;0.22;;;22.30;99.90;;;;;;5063813;28;20035;-81
2022/01/23 11:04:58;;;;;;;1.65;0.20;;;22.40;99.90;;;;;;5070523;28;20045;-76
2022/01/23 11:07:29;;;;;;;0.65;0.17;;;22.30;99.90;;;;;;5063867;28;20024;-77
2022/01/23 11:09:59;;;;;;;0.15;0.15;;;22.30;99.90;;;;;;5072836;28;20052;-76
2022/01/23 11:18:32;;;;;;;1.65;0.20;;;22.10;99.90;;;;;;5071512;28;20139;-77
2022/01/23 11:21:12;;;;;;;1.33;1.23;;;22.10;99.90;;;;;;5071902;28;20438;-78
2022/01/23 11:23:40;;;;;;;3.17;0.30;;;22.10;99.90;;;;;;5063810;28;20116;-76
2022/01/23 11:26:10;;;;;;;1.48;0.10;;;22.00;99.90;;;;;;5067750;28;20506;-76
2022/01/23 11:28:44;;;;;;;0.20;0.10;;;22.00;99.90;;;;;;5062676;28;20396;-76
2022/01/23 11:31:22;;;;;;;2.50;0.13;;;21.80;99.90;;;;;;5066953;28;20137;-76
2022/01/23 11:33:51;;;;;;;2.03;0.20;;;21.70;99.90;;;;;;5053973;28;20059;-74
2022/01/23 11:36:21;;;;;;;1.48;0.20;;;21.60;99.90;;;;;;5061066;28;20772;-76
2022/01/23 11:38:50;;;;;;;0.73;0.10;;;21.50;99.90;;;;;;5059347;28;20029;-82
2022/01/23 11:55:36;;;;;;;0.50;0.15;;;21.20;99.90;;;;;;5060684;28;20592;-81
2022/01/23 11:58:05;;;;;;;0.45;0.10;;;21.20;99.90;;;;;;5057049;28;20035;-77
2022/01/23 12:00:39;;;;;;;1.15;0.10;;;21.20;99.90;;;;;;5061443;28;20086;-79
2022/01/23 12:03:17;;;;;;;0.45;0.00;;;21.20;99.90;;;;;;5069661;28;20032;-75
2022/01/23 12:05:47;;;;;;;0.45;0.15;;;21.20;99.90;;;;;;5068598;28;20652;-78
2022/01/23 12:08:15;;;;;;;0.32;0.20;;;21.30;99.90;;;;;;5064816;28;20040;-80
2022/01/23 12:11:06;;;;;;;1.25;0.20;;;21.20;99.90;;;;;;5071732;28;20115;-78
2022/01/23 12:19:12;;;;;;;0.20;0.10;;;21.20;99.90;;;;;;5066205;28;20393;-78
2022/01/23 12:21:39;;;;;;;1.90;0.20;;;21.20;99.90;;;;;;5060300;28;20020;-77
2022/01/23 12:24:09;;;;;;;0.57;0.10;;;21.20;99.90;;;;;;5072927;28;20051;-74
2022/01/23 12:26:36;;;;;;;1.55;0.20;;;21.20;99.90;;;;;;5056953;28;20109;-74
2022/01/23 12:29:26;;;;;;;0.25;0.10;;;21.20;99.90;;;;;;5057724;28;20036;-82
2022/01/23 12:32:19;;;;;;;0.85;0.20;;;21.20;99.90;;;;;;5058658;28;20029;-76
2022/01/23 12:34:47;;;;;;;0.50;0.10;;;21.30;99.90;;;;;;5049857;28;20021;-77
2022/01/23 12:37:14;;;;;;;0.73;0.10;;;21.30;99.90;;;;;;5055428;28;20560;-78
2022/01/23 12:39:42;;;;;;;1.17;0.10;;;21.30;99.90;;;;;;5055103;28;20056;-79
2022/01/23 12:42:09;;;;;;;2.38;0.90;;;21.40;99.90;;;;;;5061384;28;20154;-79
2022/01/23 12:44:40;;;;;;;2.45;0.13;;;21.40;99.90;;;;;;5065172;28;20509;-74
2022/01/23 12:47:19;;;;;;;0.93;0.40;;;21.40;99.90;;;;;;5065011;28;20037;-75
2022/01/23 12:49:51;;;;;;;0.47;0.28;;;21.40;99.90;;;;;;5062285;28;20028;-79
2022/01/23 12:52:21;;;;;;;0.30;0.10;;;21.50;99.90;;;;;;5060868;28;20021;-75
2022/01/23 12:54:51;;;;;;;0.75;0.10;;;21.50;99.90;;;;;;5060072;28;20024;-76
2022/01/23 12:57:24;;;;;;;0.30;0.10;;;21.50;99.90;;;;;;5060445;28;20063;-77
2022/01/23 12:59:57;;;;;;;0.25;0.15;;;21.50;99.90;;;;;;5066314;28;20439;-75
2022/01/23 13:02:30;;;;;;;1.55;0.10;;;21.60;99.90;;;;;;5067982;28;20045;-76
2022/01/23 13:04:58;;;;;;;0.82;0.10;;;21.60;99.90;;;;;;5065549;28;20044;-76
2022/01/23 13:07:46;;;;;;;1.20;0.15;;;21.60;99.90;;;;;;5062540;28;20077;-79
2022/01/23 13:10:31;;;;;;;1.35;0.10;;;21.40;99.90;;;;;;5064002;28;20028;-75
2022/01/23 13:32:14;;;;;;;0.40;0.10;;;20.70;99.90;;;;;;5060035;28;20028;-75
2022/01/23 13:34:50;;;;;;;1.08;0.10;;;20.70;99.90;;;;;;5061068;28;20041;-74
2022/01/23 13:37:30;;;;;;;1.65;0.17;;;20.70;99.90;;;;;;5067690;28;20103;-75
2022/01/23 13:40:12;;;;;;;0.20;0.10;;;20.70;99.90;;;;;;5055701;28;20040;-76
2022/01/23 13:59:20;;;;;;;0.38;0.13;;;20.60;99.90;;;;;;5056509;28;20036;-78
2022/01/23 14:02:08;;;;;;;0.50;0.15;;;20.50;99.90;;;;;;5058318;28;20033;-79
2022/01/23 14:04:46;;;;;;;0.90;0.10;;;20.50;99.90;;;;;;5070899;28;20517;-75
2022/01/23 14:07:22;;;;;;;0.20;0.10;;;20.50;99.90;;;;;;5068429;28;20020;-77
2022/01/23 14:09:49;;;;;;;1.45;0.10;;;20.50;99.90;;;;;;5064413;28;20028;-77
2022/01/23 14:12:19;;;;;;;0.50;0.20;;;20.50;99.90;;;;;;5053688;28;20146;-76
2022/01/23 14:14:56;;;;;;;0.50;0.15;;;20.50;99.90;;;;;;5053484;28;20037;-78
2022/01/23 14:17:28;;;;;;;0.30;0.10;;;20.50;99.90;;;;;;5070216;28;20078;-74
2022/01/23 14:20:04;;;;;;;1.33;0.10;;;20.50;99.90;;;;;;5068222;28;20029;-74
2022/01/23 14:22:35;;;;;;;0.10;0.10;;;20.40;99.90;;;;;;5065198;28;20028;-77
2022/01/23 14:25:20;;;;;;;0.00;0.00;;;20.40;99.90;;;;;;5063571;28;20545;-78
2022/01/23 14:28:11;;;;;;;0.10;0.10;;;20.40;99.90;;;;;;5066259;28;20048;-75
2022/01/23 14:30:53;;;;;;;1.90;0.32;;;20.40;99.90;;;;;;5053207;28;20053;-78
2022/01/23 14:33:31;;;;;;;0.10;0.10;;;20.30;99.90;;;;;;5070857;28;20073;-78
2022/01/23 14:35:59;;;;;;;0.25;0.17;;;20.30;99.90;;;;;;5056043;28;20021;-81
2022/01/23 14:38:28;;;;;;;0.32;0.10;;;20.20;99.90;;;;;;5063757;28;20033;-77
2022/01/23 14:41:00;;;;;;;0.20;0.10;;;20.20;99.90;;;;;;5057854;28;20439;-74
2022/01/23 14:43:36;;;;;;;2.42;0.30;;;20.20;99.90;;;;;;5067513;28;20044;-76
2022/01/23 14:46:05;;;;;;;1.23;0.10;;;20.20;99.90;;;;;;5071395;28;20052;-76
2022/01/23 14:48:38;;;;;;;0.13;0.10;;;20.20;99.90;;;;;;5071298;28;20032;-79
2022/01/23 14:51:06;;;;;;;2.10;0.20;;;20.20;99.90;;;;;;5066337;28;20024;-75
2022/01/23 14:53:37;;;;;;;1.45;0.22;;;20.20;99.90;;;;;;5072658;28;20510;-77
2022/01/23 14:56:08;;;;;;;1.27;0.10;;;20.20;99.90;;;;;;5070545;28;20550;-75
2022/01/23 14:58:37;;;;;;;0.68;0.10;;;20.20;99.90;;;;;;5062103;28;20032;-79
2022/01/23 15:01:10;;;;;;;0.88;0.25;;;20.20;99.90;;;;;;5052119;28;20098;-73
2022/01/23 15:03:39;;;;;;;0.20;0.10;;;20.20;99.90;;;;;;5064680;28;20040;-75
2022/01/23 15:06:07;;;;;;;0.20;0.17;;;20.20;99.90;;;;;;5051965;28;20036;-74
2022/01/23 15:08:35;;;;;;;2.60;0.20;;;20.20;99.90;;;;;;5053626;28;20032;-77
2022/01/23 15:11:02;;;;;;;2.60;0.30;;;20.20;99.90;;;;;;5067783;28;20051;-75
2022/01/23 15:13:31;;;;;;;2.90;0.40;;;20.20;99.90;;;;;;5070935;28;20115;-74
2022/01/23 15:16:01;;;;;;;7.30;0.45;;;20.20;99.90;;;;;;5071130;28;20096;-74
2022/01/23 15:18:29;;;;;;;0.38;0.35;;;20.20;99.90;;;;;;5057624;28;20362;-74
2022/01/23 15:20:56;;;;;;;1.95;0.50;;;20.20;99.90;;;;;;5066107;28;20025;-74
2022/01/23 15:23:24;;;;;;;0.55;0.30;;;20.20;99.90;;;;;;5064899;28;20367;-74
2022/01/23 15:25:51;;;;;;;1.92;0.20;;;20.20;99.90;;;;;;5060758;28;20052;-76
2022/01/23 15:28:19;;;;;;;1.63;0.40;;;20.10;99.90;;;;;;5063418;28;20028;-75
2022/01/23 15:30:49;;;;;;;1.23;0.40;;;20.10;99.90;;;;;;5070453;28;20448;-74
2022/01/23 15:33:16;;;;;;;2.38;0.40;;;20.10;99.90;;;;;;5068395;28;20042;-74
2022/01/23 15:35:49;;;;;;;0.30;0.30;;;20.10;99.90;;;;;;5072013;28;20070;-76
2022/01/23 15:38:21;;;;;;;1.17;0.50;;;20.10;99.90;;;;;;5063485;28;20742;-75
2022/01/23 15:40:49;;;;;;;2.40;0.50;;;20.00;99.90;;;;;;5070924;28;20044;-74
2022/01/23 15:43:17;;;;;;;3.95;0.70;;;20.00;99.90;;;;;;5052462;28;20047;-75
2022/01/23 15:45:45;;;;;;;4.45;0.70;;;20.00;99.90;;;;;;5052291;28;20346;-80
2022/01/23 15:48:13;;;;;;;4.47;0.52;;;20.00;99.90;;;;;;5060426;28;20036;-75
2022/01/23 15:50:40;;;;;;;1.85;0.77;;;20.00;99.90;;;;;;5061689;28;20032;-76
2022/01/23 15:53:08;;;;;;;1.20;0.90;;;19.90;99.90;;;;;;5068764;28;20024;-76
2022/01/23 15:55:35;;;;;;;1.67;0.50;;;19.90;99.90;;;;;;5063990;28;20029;-78
2022/01/23 15:58:03;;;;;;;3.88;0.75;;;19.90;99.90;;;;;;5060541;28;20033;-73
2022/01/23 16:00:34;;;;;;;0.95;0.60;;;19.90;99.90;;;;;;5051902;28;20028;-76
2022/01/23 16:03:02;;;;;;;3.42;0.65;;;19.90;99.90;;;;;;5065460;28;20081;-75
2022/01/23 16:05:29;;;;;;;2.70;1.48;;;19.90;99.90;;;;;;5065116;28;20033;-75
2022/01/23 16:07:57;;;;;;;2.58;0.68;;;19.80;99.90;;;;;;5066422;28;20081;-76
2022/01/23 16:10:24;;;;;;;1.08;0.70;;;19.80;99.90;;;;;;5069621;28;20060;-73
2022/01/23 16:12:52;;;;;;;3.80;0.60;;;19.80;99.90;;;;;;5056053;28;20452;-73
2022/01/23 16:15:21;;;;;;;1.65;0.55;;;19.80;99.90;;;;;;5070559;28;20075;-74
2022/01/23 16:17:49;;;;;;;2.35;0.85;;;19.80;99.90;;;;;;5067473;28;20036;-75
2022/01/23 16:20:19;;;;;;;2.65;0.60;;;19.80;99.90;;;;;;5063577;28;20398;-75
2022/01/23 16:22:48;;;;;;;2.20;1.38;;;19.80;99.90;;;;;;5064290;28;20404;-75
2022/01/23 16:25:18;;;;;;;1.70;0.80;;;19.80;99.90;;;;;;5050316;28;20507;-74
2022/01/23 16:27:46;;;;;;;3.47;1.33;;;19.80;99.90;;;;;;5064607;28;20024;-76
2022/01/23 16:30:13;;;;;;;0.95;0.70;;;19.80;99.90;;;;;;5072346;28;20029;-74
2022/01/23 16:32:42;;;;;;;1.30;0.75;;;19.80;99.90;;;;;;5055019;28;20024;-74
2022/01/23 16:35:12;;;;;;;2.72;0.77;;;19.80;99.90;;;;;;5063849;28;20033;-75
2022/01/23 16:37:39;;;;;;;1.45;0.80;;;19.80;99.90;;;;;;5064698;28;20123;-75
2022/01/23 16:40:07;;;;;;;2.85;1.17;;;19.80;99.90;;;;;;5069753;28;20025;-75